sensor_id;sensor_type;location;lat;lon;timestamp;temperature;humidity
69393;SHT31;56582;44.624;20.378;2023-03-01T00:01:59;3.04;91.45
69393;SHT31;56582;44.624;20.378;2023-03-01T00:04:25;2.88;91.33
69393;SHT31;56582;44.624;20.378;2023-03-01T00:06:50;2.97;91.45
69393;SHT31;56582;44.624;20.378;2023-03-01T00:09:16;2.94;91.39
69393;SHT31;56582;44.624;20.378;2023-03-01T00:11:42;2.93;91.72
69393;SHT31;56582;44.624;20.378;2023-03-01T00:14:07;3.00;91.66
69393;SHT31;56582;44.624;20.378;2023-03-01T00:16:41;2.97;91.54
69393;SHT31;56582;44.624;20.378;2023-03-01T00:19:11;3.04;91.55
69393;SHT31;56582;44.624;20.378;2023-03-01T00:21:36;3.09;91.29
69393;SHT31;56582;44.624;20.378;2023-03-01T00:24:02;3.00;91.30
69393;SHT31;56582;44.624;20.378;2023-03-01T00:26:28;2.98;91.39
69393;SHT31;56582;44.624;20.378;2023-03-01T00:28:54;3.07;91.13
69393;SHT31;56582;44.624;20.378;2023-03-01T00:31:24;2.79;91.48
69393;SHT31;56582;44.624;20.378;2023-03-01T00:33:56;2.91;91.83
69393;SHT31;56582;44.624;20.378;2023-03-01T00:36:23;2.90;91.69
69393;SHT31;56582;44.624;20.378;2023-03-01T00:38:49;2.91;91.71
69393;SHT31;56582;44.624;20.378;2023-03-01T00:41:17;3.18;91.41
69393;SHT31;56582;44.624;20.378;2023-03-01T00:43:43;3.19;90.88
69393;SHT31;56582;44.624;20.378;2023-03-01T00:46:12;3.23;90.88
69393;SHT31;56582;44.624;20.378;2023-03-01T00:48:37;3.21;90.55
69393;SHT31;56582;44.624;20.378;2023-03-01T00:51:14;3.38;90.10
69393;SHT31;56582;44.624;20.378;2023-03-01T00:53:40;3.22;89.98
69393;SHT31;56582;44.624;20.378;2023-03-01T00:56:07;3.02;90.66
69393;SHT31;56582;44.624;20.378;2023-03-01T00:58:34;2.84;91.29
69393;SHT31;56582;44.624;20.378;2023-03-01T01:01:00;2.74;91.79
69393;SHT31;56582;44.624;20.378;2023-03-01T01:03:27;2.74;91.78
69393;SHT31;56582;44.624;20.378;2023-03-01T01:05:53;2.81;91.85
69393;SHT31;56582;44.624;20.378;2023-03-01T01:08:19;2.65;91.85
69393;SHT31;56582;44.624;20.378;2023-03-01T01:10:46;2.68;92.15
69393;SHT31;56582;44.624;20.378;2023-03-01T01:13:11;2.83;92.02
69393;SHT31;56582;44.624;20.378;2023-03-01T01:15:37;2.88;91.61
69393;SHT31;56582;44.624;20.378;2023-03-01T01:18:02;2.74;91.65
69393;SHT31;56582;44.624;20.378;2023-03-01T01:20:28;2.81;91.77
69393;SHT31;56582;44.624;20.378;2023-03-01T01:22:53;2.93;91.56
69393;SHT31;56582;44.624;20.378;2023-03-01T01:25:19;3.07;91.20
69393;SHT31;56582;44.624;20.378;2023-03-01T01:27:44;3.14;90.82
69393;SHT31;56582;44.624;20.378;2023-03-01T01:30:10;3.05;90.85
69393;SHT31;56582;44.624;20.378;2023-03-01T01:32:36;2.90;91.10
69393;SHT31;56582;44.624;20.378;2023-03-01T01:35:02;2.77;91.49
69393;SHT31;56582;44.624;20.378;2023-03-01T01:37:27;2.93;91.34
69393;SHT31;56582;44.624;20.378;2023-03-01T01:40:00;3.01;90.67
69393;SHT31;56582;44.624;20.378;2023-03-01T01:42:28;3.00;91.03
69393;SHT31;56582;44.624;20.378;2023-03-01T01:45:32;2.83;91.19
69393;SHT31;56582;44.624;20.378;2023-03-01T01:48:02;3.05;91.00
69393;SHT31;56582;44.624;20.378;2023-03-01T01:50:29;2.90;91.00
69393;SHT31;56582;44.624;20.378;2023-03-01T01:53:06;2.87;91.21
69393;SHT31;56582;44.624;20.378;2023-03-01T01:55:33;2.84;91.28
69393;SHT31;56582;44.624;20.378;2023-03-01T01:58:05;2.71;91.72
69393;SHT31;56582;44.624;20.378;2023-03-01T02:00:33;2.49;92.34
69393;SHT31;56582;44.624;20.378;2023-03-01T02:03:04;2.46;92.74
69393;SHT31;56582;44.624;20.378;2023-03-01T02:08:16;2.42;92.89
69393;SHT31;56582;44.624;20.378;2023-03-01T02:10:45;2.42;92.87
69393;SHT31;56582;44.624;20.378;2023-03-01T02:13:11;2.49;92.82
69393;SHT31;56582;44.624;20.378;2023-03-01T02:15:38;2.43;93.02
69393;SHT31;56582;44.624;20.378;2023-03-01T02:18:05;2.58;93.00
69393;SHT31;56582;44.624;20.378;2023-03-01T02:23:33;2.83;92.20
69393;SHT31;56582;44.624;20.378;2023-03-01T02:31:00;2.84;92.03
69393;SHT31;56582;44.624;20.378;2023-03-01T02:33:45;3.00;91.29
69393;SHT31;56582;44.624;20.378;2023-03-01T02:36:15;2.73;91.74
69393;SHT31;56582;44.624;20.378;2023-03-01T02:38:42;2.93;91.73
69393;SHT31;56582;44.624;20.378;2023-03-01T02:41:08;2.91;91.78
69393;SHT31;56582;44.624;20.378;2023-03-01T02:43:36;2.74;92.01
69393;SHT31;56582;44.624;20.378;2023-03-01T02:46:08;2.80;92.22
69393;SHT31;56582;44.624;20.378;2023-03-01T02:48:42;2.85;91.93
69393;SHT31;56582;44.624;20.378;2023-03-01T02:56:02;2.60;92.23
69393;SHT31;56582;44.624;20.378;2023-03-01T02:58:27;2.84;92.06
69393;SHT31;56582;44.624;20.378;2023-03-01T03:00:53;2.88;91.08
69393;SHT31;56582;44.624;20.378;2023-03-01T03:03:20;2.60;91.99
69393;SHT31;56582;44.624;20.378;2023-03-01T03:05:46;2.77;92.28
69393;SHT31;56582;44.624;20.378;2023-03-01T03:08:13;2.79;92.88
69393;SHT31;56582;44.624;20.378;2023-03-01T03:10:41;2.68;93.98
69393;SHT31;56582;44.624;20.378;2023-03-01T03:13:10;2.68;95.30
69393;SHT31;56582;44.624;20.378;2023-03-01T03:15:36;3.09;95.99
69393;SHT31;56582;44.624;20.378;2023-03-01T03:18:06;2.81;94.90
69393;SHT31;56582;44.624;20.378;2023-03-01T03:20:33;2.91;94.85
69393;SHT31;56582;44.624;20.378;2023-03-01T03:22:59;2.98;94.87
69393;SHT31;56582;44.624;20.378;2023-03-01T03:25:26;3.26;95.50
69393;SHT31;56582;44.624;20.378;2023-03-01T03:27:53;3.16;94.39
69393;SHT31;56582;44.624;20.378;2023-03-01T03:30:30;3.04;93.64
69393;SHT31;56582;44.624;20.378;2023-03-01T03:32:57;3.00;93.00
69393;SHT31;56582;44.624;20.378;2023-03-01T03:35:32;3.08;92.17
69393;SHT31;56582;44.624;20.378;2023-03-01T03:38:00;2.95;91.60
69393;SHT31;56582;44.624;20.378;2023-03-01T03:42:59;2.67;92.04
69393;SHT31;56582;44.624;20.378;2023-03-01T03:45:24;2.79;92.30
69393;SHT31;56582;44.624;20.378;2023-03-01T03:47:49;2.58;92.69
69393;SHT31;56582;44.624;20.378;2023-03-01T03:50:16;2.58;92.59
69393;SHT31;56582;44.624;20.378;2023-03-01T03:52:42;2.63;92.47
69393;SHT31;56582;44.624;20.378;2023-03-01T03:55:09;2.64;92.66
69393;SHT31;56582;44.624;20.378;2023-03-01T03:57:38;2.84;91.89
69393;SHT31;56582;44.624;20.378;2023-03-01T04:00:06;2.80;91.68
69393;SHT31;56582;44.624;20.378;2023-03-01T04:02:41;2.81;91.75
69393;SHT31;56582;44.624;20.378;2023-03-01T04:05:08;2.80;91.69
69393;SHT31;56582;44.624;20.378;2023-03-01T04:07:35;2.87;91.88
69393;SHT31;56582;44.624;20.378;2023-03-01T04:10:02;3.02;91.50
69393;SHT31;56582;44.624;20.378;2023-03-01T04:12:28;3.07;91.34
69393;SHT31;56582;44.624;20.378;2023-03-01T04:14:54;3.14;90.97
69393;SHT31;56582;44.624;20.378;2023-03-01T04:17:19;2.98;91.39
69393;SHT31;56582;44.624;20.378;2023-03-01T04:19:45;2.98;91.17
69393;SHT31;56582;44.624;20.378;2023-03-01T04:22:14;2.95;91.28
69393;SHT31;56582;44.624;20.378;2023-03-01T04:24:44;3.08;91.11
69393;SHT31;56582;44.624;20.378;2023-03-01T04:27:10;3.16;90.87
69393;SHT31;56582;44.624;20.378;2023-03-01T04:29:35;2.93;91.10
69393;SHT31;56582;44.624;20.378;2023-03-01T04:32:01;2.91;91.71
69393;SHT31;56582;44.624;20.378;2023-03-01T04:34:28;2.71;91.96
69393;SHT31;56582;44.624;20.378;2023-03-01T04:36:53;2.83;92.19
69393;SHT31;56582;44.624;20.378;2023-03-01T04:39:19;2.84;91.67
69393;SHT31;56582;44.624;20.378;2023-03-01T04:41:44;2.70;92.31
69393;SHT31;56582;44.624;20.378;2023-03-01T04:44:10;2.80;91.90
69393;SHT31;56582;44.624;20.378;2023-03-01T04:46:36;2.84;92.15
69393;SHT31;56582;44.624;20.378;2023-03-01T04:49:02;2.94;91.92
69393;SHT31;56582;44.624;20.378;2023-03-01T04:51:28;2.74;92.21
69393;SHT31;56582;44.624;20.378;2023-03-01T04:53:53;2.71;92.33
69393;SHT31;56582;44.624;20.378;2023-03-01T04:56:19;2.58;92.49
69393;SHT31;56582;44.624;20.378;2023-03-01T04:58:45;2.70;92.67
69393;SHT31;56582;44.624;20.378;2023-03-01T05:01:20;2.67;92.46
69393;SHT31;56582;44.624;20.378;2023-03-01T05:03:48;2.71;92.66
69393;SHT31;56582;44.624;20.378;2023-03-01T05:06:15;2.68;92.55
69393;SHT31;56582;44.624;20.378;2023-03-01T05:08:41;2.61;92.68
69393;SHT31;56582;44.624;20.378;2023-03-01T05:11:07;2.70;92.52
69393;SHT31;56582;44.624;20.378;2023-03-01T05:13:35;2.63;92.64
69393;SHT31;56582;44.624;20.378;2023-03-01T05:16:02;2.68;92.76
69393;SHT31;56582;44.624;20.378;2023-03-01T05:18:30;2.50;92.87
69393;SHT31;56582;44.624;20.378;2023-03-01T05:21:05;2.57;92.80
69393;SHT31;56582;44.624;20.378;2023-03-01T05:23:32;2.57;93.13
69393;SHT31;56582;44.624;20.378;2023-03-01T05:25:58;2.47;92.59
69393;SHT31;56582;44.624;20.378;2023-03-01T05:28:25;2.61;92.88
69393;SHT31;56582;44.624;20.378;2023-03-01T05:30:51;2.56;92.49
69393;SHT31;56582;44.624;20.378;2023-03-01T05:33:17;2.74;92.26
69393;SHT31;56582;44.624;20.378;2023-03-01T05:35:43;2.71;92.00
69393;SHT31;56582;44.624;20.378;2023-03-01T05:38:11;2.81;91.81
69393;SHT31;56582;44.624;20.378;2023-03-01T05:40:44;2.85;91.67
69393;SHT31;56582;44.624;20.378;2023-03-01T05:43:11;2.98;91.65
69393;SHT31;56582;44.624;20.378;2023-03-01T05:45:38;3.02;91.28
69393;SHT31;56582;44.624;20.378;2023-03-01T05:48:04;3.02;91.37
69393;SHT31;56582;44.624;20.378;2023-03-01T05:50:35;3.08;91.25
69393;SHT31;56582;44.624;20.378;2023-03-01T05:53:02;3.01;91.56
69393;SHT31;56582;44.624;20.378;2023-03-01T05:55:31;2.94;91.92
69393;SHT31;56582;44.624;20.378;2023-03-01T05:57:59;3.02;91.67
69393;SHT31;56582;44.624;20.378;2023-03-01T06:00:25;2.95;91.63
69393;SHT31;56582;44.624;20.378;2023-03-01T06:02:53;2.95;92.10
69393;SHT31;56582;44.624;20.378;2023-03-01T06:05:19;2.81;92.18
69393;SHT31;56582;44.624;20.378;2023-03-01T06:07:44;2.95;92.21
69393;SHT31;56582;44.624;20.378;2023-03-01T06:10:11;3.22;91.66
69393;SHT31;56582;44.624;20.378;2023-03-01T06:12:38;3.21;91.02
69393;SHT31;56582;44.624;20.378;2023-03-01T06:15:05;2.90;92.21
69393;SHT31;56582;44.624;20.378;2023-03-01T06:17:33;2.67;93.02
69393;SHT31;56582;44.624;20.378;2023-03-01T06:20:04;2.63;93.22
69393;SHT31;56582;44.624;20.378;2023-03-01T06:22:29;2.52;93.65
69393;SHT31;56582;44.624;20.378;2023-03-01T06:24:55;2.50;93.96
69393;SHT31;56582;44.624;20.378;2023-03-01T06:27:21;2.56;94.08
69393;SHT31;56582;44.624;20.378;2023-03-01T06:29:48;2.64;94.00
69393;SHT31;56582;44.624;20.378;2023-03-01T06:32:14;2.68;93.79
69393;SHT31;56582;44.624;20.378;2023-03-01T06:34:39;2.74;93.75
69393;SHT31;56582;44.624;20.378;2023-03-01T06:37:06;2.63;93.78
69393;SHT31;56582;44.624;20.378;2023-03-01T06:39:32;2.56;94.05
69393;SHT31;56582;44.624;20.378;2023-03-01T06:41:58;2.54;94.11
69393;SHT31;56582;44.624;20.378;2023-03-01T06:44:23;2.47;94.34
69393;SHT31;56582;44.624;20.378;2023-03-01T06:46:49;2.56;94.45
69393;SHT31;56582;44.624;20.378;2023-03-01T06:49:14;2.50;94.46
69393;SHT31;56582;44.624;20.378;2023-03-01T06:51:41;2.57;94.38
69393;SHT31;56582;44.624;20.378;2023-03-01T06:54:07;2.67;94.43
69393;SHT31;56582;44.624;20.378;2023-03-01T06:56:32;2.63;94.41
69393;SHT31;56582;44.624;20.378;2023-03-01T06:58:58;2.71;94.27
69393;SHT31;56582;44.624;20.378;2023-03-01T07:01:24;2.80;94.17
69393;SHT31;56582;44.624;20.378;2023-03-01T07:03:49;2.91;93.94
69393;SHT31;56582;44.624;20.378;2023-03-01T07:06:15;3.05;93.86
69393;SHT31;56582;44.624;20.378;2023-03-01T07:08:40;3.15;93.57
69393;SHT31;56582;44.624;20.378;2023-03-01T07:11:06;3.21;93.30
69393;SHT31;56582;44.624;20.378;2023-03-01T07:13:32;3.22;93.42
69393;SHT31;56582;44.624;20.378;2023-03-01T07:15:57;3.16;93.46
69393;SHT31;56582;44.624;20.378;2023-03-01T07:18:23;3.11;93.69
69393;SHT31;56582;44.624;20.378;2023-03-01T07:20:49;3.12;94.05
69393;SHT31;56582;44.624;20.378;2023-03-01T07:23:14;3.38;94.05
69393;SHT31;56582;44.624;20.378;2023-03-01T07:25:40;3.40;93.83
69393;SHT31;56582;44.624;20.378;2023-03-01T07:28:06;3.69;93.08
69393;SHT31;56582;44.624;20.378;2023-03-01T07:30:31;3.62;93.15
69393;SHT31;56582;44.624;20.378;2023-03-01T07:32:58;3.64;93.37
69393;SHT31;56582;44.624;20.378;2023-03-01T07:35:25;3.63;93.14
69393;SHT31;56582;44.624;20.378;2023-03-01T07:37:51;3.77;93.04
69393;SHT31;56582;44.624;20.378;2023-03-01T07:40:17;3.86;92.75
69393;SHT31;56582;44.624;20.378;2023-03-01T07:42:42;3.91;92.16
69393;SHT31;56582;44.624;20.378;2023-03-01T07:45:08;4.04;92.05
69393;SHT31;56582;44.624;20.378;2023-03-01T07:47:35;3.95;91.89
69393;SHT31;56582;44.624;20.378;2023-03-01T07:50:00;4.02;91.93
69393;SHT31;56582;44.624;20.378;2023-03-01T07:52:26;4.18;91.25
69393;SHT31;56582;44.624;20.378;2023-03-01T07:54:52;4.22;91.05
69393;SHT31;56582;44.624;20.378;2023-03-01T07:57:17;4.37;91.09
69393;SHT31;56582;44.624;20.378;2023-03-01T07:59:43;4.28;90.99
69393;SHT31;56582;44.624;20.378;2023-03-01T08:02:10;4.38;91.61
69393;SHT31;56582;44.624;20.378;2023-03-01T08:04:35;4.31;92.09
69393;SHT31;56582;44.624;20.378;2023-03-01T08:07:01;4.37;92.34
69393;SHT31;56582;44.624;20.378;2023-03-01T08:09:26;4.46;92.37
69393;SHT31;56582;44.624;20.378;2023-03-01T08:11:52;4.66;91.94
69393;SHT31;56582;44.624;20.378;2023-03-01T08:14:19;4.76;91.45
69393;SHT31;56582;44.624;20.378;2023-03-01T08:16:44;4.90;91.19
69393;SHT31;56582;44.624;20.378;2023-03-01T08:19:11;4.99;90.92
69393;SHT31;56582;44.624;20.378;2023-03-01T08:21:37;5.18;90.67
69393;SHT31;56582;44.624;20.378;2023-03-01T08:24:04;5.35;90.41
69393;SHT31;56582;44.624;20.378;2023-03-01T08:26:31;5.35;90.40
69393;SHT31;56582;44.624;20.378;2023-03-01T08:28:57;5.37;89.93
69393;SHT31;56582;44.624;20.378;2023-03-01T08:31:33;5.38;90.28
69393;SHT31;56582;44.624;20.378;2023-03-01T08:34:01;5.37;90.48
69393;SHT31;56582;44.624;20.378;2023-03-01T08:36:30;5.55;90.63
69393;SHT31;56582;44.624;20.378;2023-03-01T08:38:56;5.68;90.72
69393;SHT31;56582;44.624;20.378;2023-03-01T08:41:21;5.76;90.57
69393;SHT31;56582;44.624;20.378;2023-03-01T08:43:47;5.73;90.47
69393;SHT31;56582;44.624;20.378;2023-03-01T08:46:13;5.76;89.91
69393;SHT31;56582;44.624;20.378;2023-03-01T08:48:39;5.78;89.88
69393;SHT31;56582;44.624;20.378;2023-03-01T08:51:17;5.93;89.61
69393;SHT31;56582;44.624;20.378;2023-03-01T08:53:43;6.00;90.33
69393;SHT31;56582;44.624;20.378;2023-03-01T08:56:09;6.21;89.97
69393;SHT31;56582;44.624;20.378;2023-03-01T08:58:35;6.24;89.51
69393;SHT31;56582;44.624;20.378;2023-03-01T09:01:01;6.10;89.14
69393;SHT31;56582;44.624;20.378;2023-03-01T09:03:31;6.02;89.30
69393;SHT31;56582;44.624;20.378;2023-03-01T09:06:00;6.05;88.42
69393;SHT31;56582;44.624;20.378;2023-03-01T09:08:26;6.05;89.16
69393;SHT31;56582;44.624;20.378;2023-03-01T09:10:52;5.86;89.17
69393;SHT31;56582;44.624;20.378;2023-03-01T09:13:17;5.44;89.58
69393;SHT31;56582;44.624;20.378;2023-03-01T09:15:42;5.35;90.49
69393;SHT31;56582;44.624;20.378;2023-03-01T09:18:08;5.48;90.85
69393;SHT31;56582;44.624;20.378;2023-03-01T09:20:34;5.62;90.90
69393;SHT31;56582;44.624;20.378;2023-03-01T09:22:59;5.70;90.69
69393;SHT31;56582;44.624;20.378;2023-03-01T09:25:25;6.00;90.76
69393;SHT31;56582;44.624;20.378;2023-03-01T09:27:51;6.03;90.15
69393;SHT31;56582;44.624;20.378;2023-03-01T09:30:17;5.96;89.95
69393;SHT31;56582;44.624;20.378;2023-03-01T09:32:43;6.23;89.94
69393;SHT31;56582;44.624;20.378;2023-03-01T09:35:11;6.41;89.28
69393;SHT31;56582;44.624;20.378;2023-03-01T09:37:37;6.54;89.20
69393;SHT31;56582;44.624;20.378;2023-03-01T09:40:12;6.74;88.75
69393;SHT31;56582;44.624;20.378;2023-03-01T09:42:48;6.78;87.97
69393;SHT31;56582;44.624;20.378;2023-03-01T09:45:28;6.68;87.82
69393;SHT31;56582;44.624;20.378;2023-03-01T09:47:58;6.49;88.01
69393;SHT31;56582;44.624;20.378;2023-03-01T09:50:26;6.71;88.68
69393;SHT31;56582;44.624;20.378;2023-03-01T09:53:05;6.61;87.40
69393;SHT31;56582;44.624;20.378;2023-03-01T09:55:48;6.84;88.16
69393;SHT31;56582;44.624;20.378;2023-03-01T10:06:50;7.44;87.15
69393;SHT31;56582;44.624;20.378;2023-03-01T10:09:17;7.40;85.41
69393;SHT31;56582;44.624;20.378;2023-03-01T10:11:48;7.44;85.08
69393;SHT31;56582;44.624;20.378;2023-03-01T10:16:57;7.46;85.54
69393;SHT31;56582;44.624;20.378;2023-03-01T10:22:11;7.43;82.15
69393;SHT31;56582;44.624;20.378;2023-03-01T10:24:38;7.37;84.33
69393;SHT31;56582;44.624;20.378;2023-03-01T10:27:19;7.47;83.30
69393;SHT31;56582;44.624;20.378;2023-03-01T10:29:59;7.38;82.77
69393;SHT31;56582;44.624;20.378;2023-03-01T10:32:26;7.55;82.35
69393;SHT31;56582;44.624;20.378;2023-03-01T10:34:51;7.58;84.73
69393;SHT31;56582;44.624;20.378;2023-03-01T10:37:19;7.63;85.20
69393;SHT31;56582;44.624;20.378;2023-03-01T10:42:33;7.58;83.38
69393;SHT31;56582;44.624;20.378;2023-03-01T10:45:38;7.75;83.30
69393;SHT31;56582;44.624;20.378;2023-03-01T10:50:40;7.89;83.69
69393;SHT31;56582;44.624;20.378;2023-03-01T10:55:47;8.09;83.29
69393;SHT31;56582;44.624;20.378;2023-03-01T10:58:20;7.98;82.16
69393;SHT31;56582;44.624;20.378;2023-03-01T11:01:02;7.77;83.23
69393;SHT31;56582;44.624;20.378;2023-03-01T11:03:38;7.53;83.03
69393;SHT31;56582;44.624;20.378;2023-03-01T11:08:46;7.36;83.93
69393;SHT31;56582;44.624;20.378;2023-03-01T11:13:50;7.27;83.25
69393;SHT31;56582;44.624;20.378;2023-03-01T11:16:26;7.42;83.06
69393;SHT31;56582;44.624;20.378;2023-03-01T11:19:00;7.42;83.44
69393;SHT31;56582;44.624;20.378;2023-03-01T11:21:28;7.28;84.11
69393;SHT31;56582;44.624;20.378;2023-03-01T11:23:59;7.19;85.12
69393;SHT31;56582;44.624;20.378;2023-03-01T11:26:25;7.09;84.38
69393;SHT31;56582;44.624;20.378;2023-03-01T11:28:54;7.24;83.75
69393;SHT31;56582;44.624;20.378;2023-03-01T11:31:21;7.23;83.70
69393;SHT31;56582;44.624;20.378;2023-03-01T11:33:59;7.31;84.84
69393;SHT31;56582;44.624;20.378;2023-03-01T11:39:19;7.55;83.87
69393;SHT31;56582;44.624;20.378;2023-03-01T11:41:50;7.77;83.47
69393;SHT31;56582;44.624;20.378;2023-03-01T11:44:24;7.86;82.87
69393;SHT31;56582;44.624;20.378;2023-03-01T11:58:31;7.88;80.70
69393;SHT31;56582;44.624;20.378;2023-03-01T12:06:41;8.03;81.08
69393;SHT31;56582;44.624;20.378;2023-03-01T12:12:06;7.99;82.06
69393;SHT31;56582;44.624;20.378;2023-03-01T12:25:43;8.02;81.88
69393;SHT31;56582;44.624;20.378;2023-03-01T12:31:36;8.16;82.65
69393;SHT31;56582;44.624;20.378;2023-03-01T12:36:58;7.98;81.73
69393;SHT31;56582;44.624;20.378;2023-03-01T12:50:53;8.07;80.66
69393;SHT31;56582;44.624;20.378;2023-03-01T12:53:31;8.09;81.75
69393;SHT31;56582;44.624;20.378;2023-03-01T12:56:09;8.13;81.98
69393;SHT31;56582;44.624;20.378;2023-03-01T13:04:25;8.29;79.41
69393;SHT31;56582;44.624;20.378;2023-03-01T13:12:00;8.59;81.06
69393;SHT31;56582;44.624;20.378;2023-03-01T13:16:52;8.73;79.38
69393;SHT31;56582;44.624;20.378;2023-03-01T13:19:20;8.77;80.90
69393;SHT31;56582;44.624;20.378;2023-03-01T13:21:47;8.87;83.19
69393;SHT31;56582;44.624;20.378;2023-03-01T13:32:25;9.05;78.30
69393;SHT31;56582;44.624;20.378;2023-03-01T13:37:45;8.85;78.18
69393;SHT31;56582;44.624;20.378;2023-03-01T13:45:25;8.56;79.62
69393;SHT31;56582;44.624;20.378;2023-03-01T13:47:59;8.43;79.74
69393;SHT31;56582;44.624;20.378;2023-03-01T13:50:33;8.36;79.70
69393;SHT31;56582;44.624;20.378;2023-03-01T13:53:05;8.34;79.60
69393;SHT31;56582;44.624;20.378;2023-03-01T13:55:48;8.15;81.12
69393;SHT31;56582;44.624;20.378;2023-03-01T13:58:23;8.12;80.41
69393;SHT31;56582;44.624;20.378;2023-03-01T14:00:56;8.16;79.87
69393;SHT31;56582;44.624;20.378;2023-03-01T14:03:21;7.99;80.68
69393;SHT31;56582;44.624;20.378;2023-03-01T14:08:27;7.99;82.04
69393;SHT31;56582;44.624;20.378;2023-03-01T14:16:29;7.88;81.51
69393;SHT31;56582;44.624;20.378;2023-03-01T14:21:29;7.92;81.49
69393;SHT31;56582;44.624;20.378;2023-03-01T14:23:56;7.88;81.77
69393;SHT31;56582;44.624;20.378;2023-03-01T14:26:23;7.98;81.84
69393;SHT31;56582;44.624;20.378;2023-03-01T14:28:49;7.86;82.12
69393;SHT31;56582;44.624;20.378;2023-03-01T14:31:41;7.73;82.77
69393;SHT31;56582;44.624;20.378;2023-03-01T14:34:18;7.77;81.51
69393;SHT31;56582;44.624;20.378;2023-03-01T14:36:44;7.68;82.97
69393;SHT31;56582;44.624;20.378;2023-03-01T14:39:24;7.73;82.41
69393;SHT31;56582;44.624;20.378;2023-03-01T14:41:50;7.63;82.36
69393;SHT31;56582;44.624;20.378;2023-03-01T14:44:21;7.68;82.04
69393;SHT31;56582;44.624;20.378;2023-03-01T14:46:52;7.65;81.80
69393;SHT31;56582;44.624;20.378;2023-03-01T14:49:20;7.54;81.77
69393;SHT31;56582;44.624;20.378;2023-03-01T14:51:58;7.28;83.00
69393;SHT31;56582;44.624;20.378;2023-03-01T14:54:46;7.37;82.89
69393;SHT31;56582;44.624;20.378;2023-03-01T14:57:25;7.30;83.25
69393;SHT31;56582;44.624;20.378;2023-03-01T14:59:53;7.37;82.99
69393;SHT31;56582;44.624;20.378;2023-03-01T15:02:22;7.19;84.02
69393;SHT31;56582;44.624;20.378;2023-03-01T15:04:52;7.19;84.07
69393;SHT31;56582;44.624;20.378;2023-03-01T15:07:18;7.17;84.27
69393;SHT31;56582;44.624;20.378;2023-03-01T15:09:45;7.20;83.68
69393;SHT31;56582;44.624;20.378;2023-03-01T15:14:58;7.03;85.12
69393;SHT31;56582;44.624;20.378;2023-03-01T15:19:53;7.07;84.61
69393;SHT31;56582;44.624;20.378;2023-03-01T15:22:19;7.03;83.69
69393;SHT31;56582;44.624;20.378;2023-03-01T15:24:49;6.95;84.05
69393;SHT31;56582;44.624;20.378;2023-03-01T15:27:21;6.88;83.62
69393;SHT31;56582;44.624;20.378;2023-03-01T15:29:59;6.74;84.66
69393;SHT31;56582;44.624;20.378;2023-03-01T15:32:36;6.78;84.08
69393;SHT31;56582;44.624;20.378;2023-03-01T15:35:40;6.67;84.26
69393;SHT31;56582;44.624;20.378;2023-03-01T15:40:59;6.59;84.75
69393;SHT31;56582;44.624;20.378;2023-03-01T15:43:45;6.54;85.16
69393;SHT31;56582;44.624;20.378;2023-03-01T15:46:18;6.40;85.45
69393;SHT31;56582;44.624;20.378;2023-03-01T15:48:46;6.42;84.91
69393;SHT31;56582;44.624;20.378;2023-03-01T15:51:12;6.36;85.32
69393;SHT31;56582;44.624;20.378;2023-03-01T15:53:39;6.41;84.30
69393;SHT31;56582;44.624;20.378;2023-03-01T15:56:05;6.38;84.65
69393;SHT31;56582;44.624;20.378;2023-03-01T15:58:32;6.30;84.70
69393;SHT31;56582;44.624;20.378;2023-03-01T16:00:58;6.34;84.56
69393;SHT31;56582;44.624;20.378;2023-03-01T16:03:24;6.30;84.32
69393;SHT31;56582;44.624;20.378;2023-03-01T16:05:50;6.24;84.53
69393;SHT31;56582;44.624;20.378;2023-03-01T16:08:17;6.11;84.84
69393;SHT31;56582;44.624;20.378;2023-03-01T16:10:42;6.14;85.29
69393;SHT31;56582;44.624;20.378;2023-03-01T16:13:13;6.17;84.95
69393;SHT31;56582;44.624;20.378;2023-03-01T16:15:39;6.07;85.45
69393;SHT31;56582;44.624;20.378;2023-03-01T16:18:05;6.02;85.91
69393;SHT31;56582;44.624;20.378;2023-03-01T16:20:31;6.02;85.82
69393;SHT31;56582;44.624;20.378;2023-03-01T16:23:05;5.97;85.79
69393;SHT31;56582;44.624;20.378;2023-03-01T16:25:31;5.92;85.86
69393;SHT31;56582;44.624;20.378;2023-03-01T16:27:57;5.97;85.56
69393;SHT31;56582;44.624;20.378;2023-03-01T16:30:26;5.92;85.93
69393;SHT31;56582;44.624;20.378;2023-03-01T16:32:51;5.80;86.10
69393;SHT31;56582;44.624;20.378;2023-03-01T16:35:19;5.89;85.73
69393;SHT31;56582;44.624;20.378;2023-03-01T16:37:47;5.79;86.18
69393;SHT31;56582;44.624;20.378;2023-03-01T16:40:17;5.70;86.26
69393;SHT31;56582;44.624;20.378;2023-03-01T16:42:43;5.75;85.99
69393;SHT31;56582;44.624;20.378;2023-03-01T16:45:08;5.83;85.82
69393;SHT31;56582;44.624;20.378;2023-03-01T16:47:34;5.65;86.58
69393;SHT31;56582;44.624;20.378;2023-03-01T16:50:00;5.65;86.39
69393;SHT31;56582;44.624;20.378;2023-03-01T16:52:26;5.69;85.83
69393;SHT31;56582;44.624;20.378;2023-03-01T16:54:51;5.59;86.39
69393;SHT31;56582;44.624;20.378;2023-03-01T16:57:17;5.59;86.75
69393;SHT31;56582;44.624;20.378;2023-03-01T16:59:43;5.68;86.39
69393;SHT31;56582;44.624;20.378;2023-03-01T17:02:11;5.65;86.30
69393;SHT31;56582;44.624;20.378;2023-03-01T17:04:38;5.58;86.71
69393;SHT31;56582;44.624;20.378;2023-03-01T17:07:03;5.59;86.46
69393;SHT31;56582;44.624;20.378;2023-03-01T17:09:29;5.68;86.21
69393;SHT31;56582;44.624;20.378;2023-03-01T17:11:54;5.60;86.80
69393;SHT31;56582;44.624;20.378;2023-03-01T17:14:20;5.66;86.55
69393;SHT31;56582;44.624;20.378;2023-03-01T17:16:45;5.58;86.76
69393;SHT31;56582;44.624;20.378;2023-03-01T17:19:11;5.62;86.92
69393;SHT31;56582;44.624;20.378;2023-03-01T17:21:38;5.63;86.56
69393;SHT31;56582;44.624;20.378;2023-03-01T17:24:03;5.70;86.13
69393;SHT31;56582;44.624;20.378;2023-03-01T17:26:30;5.62;86.64
69393;SHT31;56582;44.624;20.378;2023-03-01T17:28:56;5.51;86.88
69393;SHT31;56582;44.624;20.378;2023-03-01T17:31:23;5.41;87.29
69393;SHT31;56582;44.624;20.378;2023-03-01T17:33:48;5.44;87.24
69393;SHT31;56582;44.624;20.378;2023-03-01T17:36:15;5.51;86.87
69393;SHT31;56582;44.624;20.378;2023-03-01T17:38:40;5.52;86.98
69393;SHT31;56582;44.624;20.378;2023-03-01T17:41:06;5.45;87.08
69393;SHT31;56582;44.624;20.378;2023-03-01T17:43:32;5.38;88.00
69393;SHT31;56582;44.624;20.378;2023-03-01T17:45:59;5.31;88.06
69393;SHT31;56582;44.624;20.378;2023-03-01T17:48:24;5.42;87.33
69393;SHT31;56582;44.624;20.378;2023-03-01T17:50:50;5.41;87.44
69393;SHT31;56582;44.624;20.378;2023-03-01T17:53:15;5.37;87.79
69393;SHT31;56582;44.624;20.378;2023-03-01T17:55:42;5.38;88.47
69393;SHT31;56582;44.624;20.378;2023-03-01T17:58:09;5.35;88.15
69393;SHT31;56582;44.624;20.378;2023-03-01T18:00:36;5.38;87.65
69393;SHT31;56582;44.624;20.378;2023-03-01T18:03:02;5.28;87.67